sensor_id;sensor_type;location;lat;lon;timestamp;temperature;humidity
49829;DHT22;35723;51.194;5.112;2022-12-29T00:01:39;12.50;99.90
49829;DHT22;35723;51.194;5.112;2022-12-29T00:04:05;12.60;99.90
49829;DHT22;35723;51.194;5.112;2022-12-29T00:06:31;12.70;99.90
49829;DHT22;35723;51.194;5.112;2022-12-29T00:08:57;12.70;99.90
49829;DHT22;35723;51.194;5.112;2022-12-29T00:11:24;12.60;99.90
49829;DHT22;35723;51.194;5.112;2022-12-29T00:13:51;12.60;99.90
49829;DHT22;35723;51.194;5.112;2022-12-29T00:16:36;12.60;99.90
49829;DHT22;35723;51.194;5.112;2022-12-29T00:19:04;12.30;99.90
49829;DHT22;35723;51.194;5.112;2022-12-29T00:21:29;12.40;99.90
49829;DHT22;35723;51.194;5.112;2022-12-29T00:24:20;12.50;99.90
49829;DHT22;35723;51.194;5.112;2022-12-29T00:27:10;12.40;99.90
49829;DHT22;35723;51.194;5.112;2022-12-29T00:29:55;12.50;99.90
49829;DHT22;35723;51.194;5.112;2022-12-29T00:32:39;12.50;99.90
49829;DHT22;35723;51.194;5.112;2022-12-29T00:35:30;12.60;99.90
49829;DHT22;35723;51.194;5.112;2022-12-29T00:38:00;12.60;99.90
49829;DHT22;35723;51.194;5.112;2022-12-29T00:40:45;12.50;99.90
49829;DHT22;35723;51.194;5.112;2022-12-29T00:43:29;12.70;99.90
49829;DHT22;35723;51.194;5.112;2022-12-29T00:46:13;12.70;99.90
49829;DHT22;35723;51.194;5.112;2022-12-29T00:48:39;12.70;99.90
49829;DHT22;35723;51.194;5.112;2022-12-29T00:51:23;12.70;99.90
49829;DHT22;35723;51.194;5.112;2022-12-29T00:53:49;12.70;99.90
49829;DHT22;35723;51.194;5.112;2022-12-29T00:56:15;12.60;99.90
49829;DHT22;35723;51.194;5.112;2022-12-29T00:58:40;12.60;99.90
49829;DHT22;35723;51.194;5.112;2022-12-29T01:01:07;12.70;99.90
49829;DHT22;35723;51.194;5.112;2022-12-29T01:03:34;12.60;99.90
49829;DHT22;35723;51.194;5.112;2022-12-29T01:06:02;12.70;99.90
49829;DHT22;35723;51.194;5.112;2022-12-29T01:08:28;12.60;99.90
49829;DHT22;35723;51.194;5.112;2022-12-29T01:10:58;12.70;99.90
49829;DHT22;35723;51.194;5.112;2022-12-29T01:13:24;12.70;99.90
49829;DHT22;35723;51.194;5.112;2022-12-29T01:15:51;12.90;99.90
49829;DHT22;35723;51.194;5.112;2022-12-29T01:18:17;12.80;99.90
49829;DHT22;35723;51.194;5.112;2022-12-29T01:20:43;12.80;99.90
49829;DHT22;35723;51.194;5.112;2022-12-29T01:23:08;12.80;99.90
49829;DHT22;35723;51.194;5.112;2022-12-29T01:25:34;12.80;99.90
49829;DHT22;35723;51.194;5.112;2022-12-29T01:28:00;12.80;99.90
49829;DHT22;35723;51.194;5.112;2022-12-29T01:30:25;12.90;99.90
49829;DHT22;35723;51.194;5.112;2022-12-29T01:32:51;12.80;99.90
49829;DHT22;35723;51.194;5.112;2022-12-29T01:35:16;12.80;99.90
49829;DHT22;35723;51.194;5.112;2022-12-29T01:37:42;12.70;99.90
49829;DHT22;35723;51.194;5.112;2022-12-29T01:40:08;12.80;99.90
49829;DHT22;35723;51.194;5.112;2022-12-29T01:42:34;12.70;99.90
49829;DHT22;35723;51.194;5.112;2022-12-29T01:45:11;12.70;99.90
49829;DHT22;35723;51.194;5.112;2022-12-29T01:47:47;12.70;99.90
49829;DHT22;35723;51.194;5.112;2022-12-29T01:53:24;12.70;99.90
49829;DHT22;35723;51.194;5.112;2022-12-29T01:55:55;12.70;99.90
49829;DHT22;35723;51.194;5.112;2022-12-29T01:58:24;12.60;99.90
49829;DHT22;35723;51.194;5.112;2022-12-29T02:00:51;12.70;99.90
49829;DHT22;35723;51.194;5.112;2022-12-29T02:03:19;12.70;99.90
49829;DHT22;35723;51.194;5.112;2022-12-29T02:08:22;12.60;99.90
49829;DHT22;35723;51.194;5.112;2022-12-29T02:10:50;12.50;99.90
49829;DHT22;35723;51.194;5.112;2022-12-29T02:13:17;12.60;99.90
49829;DHT22;35723;51.194;5.112;2022-12-29T02:26:40;12.80;99.90
49829;DHT22;35723;51.194;5.112;2022-12-29T02:34:57;12.70;99.90
49829;DHT22;35723;51.194;5.112;2022-12-29T02:37:34;12.60;99.90
49829;DHT22;35723;51.194;5.112;2022-12-29T02:40:24;12.60;99.90
49829;DHT22;35723;51.194;5.112;2022-12-29T02:43:08;12.50;99.90
49829;DHT22;35723;51.194;5.112;2022-12-29T02:45:58;12.60;99.90
49829;DHT22;35723;51.194;5.112;2022-12-29T02:48:32;12.60;99.90
49829;DHT22;35723;51.194;5.112;2022-12-29T02:51:02;12.50;99.90
49829;DHT22;35723;51.194;5.112;2022-12-29T02:53:29;12.40;99.90
49829;DHT22;35723;51.194;5.112;2022-12-29T02:56:14;12.30;99.90
49829;DHT22;35723;51.194;5.112;2022-12-29T02:58:40;12.30;99.90
49829;DHT22;35723;51.194;5.112;2022-12-29T03:01:18;12.10;99.90
49829;DHT22;35723;51.194;5.112;2022-12-29T03:04:16;12.10;99.90
49829;DHT22;35723;51.194;5.112;2022-12-29T03:07:16;12.10;99.90
49829;DHT22;35723;51.194;5.112;2022-12-29T03:09:52;12.10;99.90
49829;DHT22;35723;51.194;5.112;2022-12-29T03:12:49;12.10;99.90
49829;DHT22;35723;51.194;5.112;2022-12-29T03:15:46;12.10;99.90
49829;DHT22;35723;51.194;5.112;2022-12-29T03:19:09;12.00;99.90
49829;DHT22;35723;51.194;5.112;2022-12-29T03:21:44;12.00;99.90
49829;DHT22;35723;51.194;5.112;2022-12-29T03:24:31;12.20;99.90
49829;DHT22;35723;51.194;5.112;2022-12-29T03:26:59;12.20;99.90
49829;DHT22;35723;51.194;5.112;2022-12-29T03:29:29;12.10;99.90
49829;DHT22;35723;51.194;5.112;2022-12-29T03:31:56;12.00;99.90
49829;DHT22;35723;51.194;5.112;2022-12-29T03:34:24;12.00;99.90
49829;DHT22;35723;51.194;5.112;2022-12-29T03:37:02;11.90;99.90
49829;DHT22;35723;51.194;5.112;2022-12-29T03:39:28;11.90;99.90
49829;DHT22;35723;51.194;5.112;2022-12-29T03:42:01;11.90;99.90
49829;DHT22;35723;51.194;5.112;2022-12-29T03:44:41;11.90;99.90
49829;DHT22;35723;51.194;5.112;2022-12-29T03:47:07;11.90;99.90
49829;DHT22;35723;51.194;5.112;2022-12-29T03:49:35;12.00;99.90
49829;DHT22;35723;51.194;5.112;2022-12-29T03:52:01;12.00;99.90
49829;DHT22;35723;51.194;5.112;2022-12-29T03:54:26;12.00;99.90
49829;DHT22;35723;51.194;5.112;2022-12-29T03:56:52;12.00;99.90
49829;DHT22;35723;51.194;5.112;2022-12-29T03:59:18;11.90;99.90
49829;DHT22;35723;51.194;5.112;2022-12-29T04:01:43;11.90;99.90
49829;DHT22;35723;51.194;5.112;2022-12-29T04:04:09;11.80;99.90
49829;DHT22;35723;51.194;5.112;2022-12-29T04:06:35;11.90;99.90
49829;DHT22;35723;51.194;5.112;2022-12-29T04:09:00;11.90;99.90
49829;DHT22;35723;51.194;5.112;2022-12-29T04:11:26;12.00;99.90
49829;DHT22;35723;51.194;5.112;2022-12-29T04:13:52;12.00;99.90
49829;DHT22;35723;51.194;5.112;2022-12-29T04:16:17;11.90;99.90
49829;DHT22;35723;51.194;5.112;2022-12-29T04:18:43;12.00;99.90
49829;DHT22;35723;51.194;5.112;2022-12-29T04:21:09;12.00;99.90
49829;DHT22;35723;51.194;5.112;2022-12-29T04:23:37;11.90;99.90
49829;DHT22;35723;51.194;5.112;2022-12-29T04:26:04;11.80;99.90
49829;DHT22;35723;51.194;5.112;2022-12-29T04:28:31;11.90;99.90
49829;DHT22;35723;51.194;5.112;2022-12-29T04:30:57;11.80;99.90
49829;DHT22;35723;51.194;5.112;2022-12-29T04:33:22;11.80;99.90
49829;DHT22;35723;51.194;5.112;2022-12-29T04:35:48;11.80;99.90
49829;DHT22;35723;51.194;5.112;2022-12-29T04:38:15;11.70;99.90
49829;DHT22;35723;51.194;5.112;2022-12-29T04:40:42;11.80;99.90
49829;DHT22;35723;51.194;5.112;2022-12-29T04:43:08;11.70;99.90
49829;DHT22;35723;51.194;5.112;2022-12-29T04:45:34;11.50;99.90
49829;DHT22;35723;51.194;5.112;2022-12-29T04:48:00;11.50;99.90
49829;DHT22;35723;51.194;5.112;2022-12-29T04:50:25;11.50;99.90
49829;DHT22;35723;51.194;5.112;2022-12-29T04:52:51;11.40;99.90
49829;DHT22;35723;51.194;5.112;2022-12-29T04:55:17;11.40;99.90
49829;DHT22;35723;51.194;5.112;2022-12-29T04:57:42;11.50;99.90
49829;DHT22;35723;51.194;5.112;2022-12-29T05:00:08;11.50;99.90
49829;DHT22;35723;51.194;5.112;2022-12-29T05:02:35;11.50;99.90
49829;DHT22;35723;51.194;5.112;2022-12-29T05:05:01;11.40;99.90
49829;DHT22;35723;51.194;5.112;2022-12-29T05:07:26;11.40;99.90
49829;DHT22;35723;51.194;5.112;2022-12-29T05:09:52;11.50;99.90
49829;DHT22;35723;51.194;5.112;2022-12-29T05:12:18;11.60;99.90
49829;DHT22;35723;51.194;5.112;2022-12-29T05:14:43;11.60;99.90
49829;DHT22;35723;51.194;5.112;2022-12-29T05:17:09;11.70;99.90
49829;DHT22;35723;51.194;5.112;2022-12-29T05:19:35;11.70;99.90
49829;DHT22;35723;51.194;5.112;2022-12-29T05:22:00;11.60;99.90
49829;DHT22;35723;51.194;5.112;2022-12-29T05:24:26;11.80;99.90
49829;DHT22;35723;51.194;5.112;2022-12-29T05:26:51;11.70;99.90
49829;DHT22;35723;51.194;5.112;2022-12-29T05:29:17;11.60;99.90
49829;DHT22;35723;51.194;5.112;2022-12-29T05:31:43;11.50;99.90
49829;DHT22;35723;51.194;5.112;2022-12-29T05:34:10;11.50;99.90
49829;DHT22;35723;51.194;5.112;2022-12-29T05:36:36;11.50;99.90
49829;DHT22;35723;51.194;5.112;2022-12-29T05:39:02;11.40;99.90
49829;DHT22;35723;51.194;5.112;2022-12-29T05:41:28;11.40;99.90
49829;DHT22;35723;51.194;5.112;2022-12-29T05:43:54;11.40;99.90
49829;DHT22;35723;51.194;5.112;2022-12-29T05:46:19;11.50;99.90
49829;DHT22;35723;51.194;5.112;2022-12-29T05:48:45;11.60;99.90
49829;DHT22;35723;51.194;5.112;2022-12-29T05:51:11;11.60;99.90
49829;DHT22;35723;51.194;5.112;2022-12-29T05:53:36;11.70;99.90
49829;DHT22;35723;51.194;5.112;2022-12-29T05:56:02;11.70;99.90
49829;DHT22;35723;51.194;5.112;2022-12-29T05:58:28;11.70;99.90
49829;DHT22;35723;51.194;5.112;2022-12-29T06:00:53;11.70;99.90
49829;DHT22;35723;51.194;5.112;2022-12-29T06:03:19;11.70;99.90
49829;DHT22;35723;51.194;5.112;2022-12-29T06:05:48;11.80;99.90
49829;DHT22;35723;51.194;5.112;2022-12-29T06:08:13;11.80;99.90
49829;DHT22;35723;51.194;5.112;2022-12-29T06:10:39;11.70;99.90
49829;DHT22;35723;51.194;5.112;2022-12-29T06:13:05;11.80;99.90
49829;DHT22;35723;51.194;5.112;2022-12-29T06:15:32;11.90;99.90
49829;DHT22;35723;51.194;5.112;2022-12-29T06:17:57;12.00;99.90
49829;DHT22;35723;51.194;5.112;2022-12-29T06:20:23;11.90;99.90
49829;DHT22;35723;51.194;5.112;2022-12-29T06:22:49;11.90;99.90
49829;DHT22;35723;51.194;5.112;2022-12-29T06:25:15;12.00;99.90
49829;DHT22;35723;51.194;5.112;2022-12-29T06:27:41;11.90;99.90
49829;DHT22;35723;51.194;5.112;2022-12-29T06:30:08;11.90;99.90
49829;DHT22;35723;51.194;5.112;2022-12-29T06:32:34;11.90;99.90
49829;DHT22;35723;51.194;5.112;2022-12-29T06:35:01;12.00;99.90
49829;DHT22;35723;51.194;5.112;2022-12-29T06:37:27;12.10;99.90
49829;DHT22;35723;51.194;5.112;2022-12-29T06:39:52;12.00;99.90
49829;DHT22;35723;51.194;5.112;2022-12-29T06:42:18;12.00;99.90
49829;DHT22;35723;51.194;5.112;2022-12-29T06:44:43;12.00;99.90
49829;DHT22;35723;51.194;5.112;2022-12-29T06:47:09;11.90;99.90
49829;DHT22;35723;51.194;5.112;2022-12-29T06:49:35;11.90;99.90
49829;DHT22;35723;51.194;5.112;2022-12-29T06:52:00;11.90;99.90
49829;DHT22;35723;51.194;5.112;2022-12-29T06:54:30;11.90;99.90
49829;DHT22;35723;51.194;5.112;2022-12-29T06:56:55;12.00;99.90
49829;DHT22;35723;51.194;5.112;2022-12-29T06:59:21;12.00;99.90
49829;DHT22;35723;51.194;5.112;2022-12-29T07:01:47;11.80;99.90
49829;DHT22;35723;51.194;5.112;2022-12-29T07:04:13;11.80;99.90
49829;DHT22;35723;51.194;5.112;2022-12-29T07:06:39;11.80;99.90
49829;DHT22;35723;51.194;5.112;2022-12-29T07:09:06;11.80;99.90
49829;DHT22;35723;51.194;5.112;2022-12-29T07:11:32;11.90;99.90
49829;DHT22;35723;51.194;5.112;2022-12-29T07:13:58;11.90;99.90
49829;DHT22;35723;51.194;5.112;2022-12-29T07:16:24;11.90;99.90
49829;DHT22;35723;51.194;5.112;2022-12-29T07:18:50;11.80;99.90
49829;DHT22;35723;51.194;5.112;2022-12-29T07:21:17;11.90;99.90
49829;DHT22;35723;51.194;5.112;2022-12-29T07:23:43;11.90;99.90
49829;DHT22;35723;51.194;5.112;2022-12-29T07:26:12;11.90;99.90
49829;DHT22;35723;51.194;5.112;2022-12-29T07:28:38;12.00;99.90
49829;DHT22;35723;51.194;5.112;2022-12-29T07:31:05;12.00;99.90
49829;DHT22;35723;51.194;5.112;2022-12-29T07:33:32;12.10;99.90
49829;DHT22;35723;51.194;5.112;2022-12-29T07:35:58;12.10;99.90
49829;DHT22;35723;51.194;5.112;2022-12-29T07:38:24;12.10;99.90
49829;DHT22;35723;51.194;5.112;2022-12-29T07:40:50;12.00;99.90
49829;DHT22;35723;51.194;5.112;2022-12-29T07:43:16;11.90;99.90
49829;DHT22;35723;51.194;5.112;2022-12-29T07:45:41;11.90;99.90
49829;DHT22;35723;51.194;5.112;2022-12-29T07:48:07;11.90;99.90
49829;DHT22;35723;51.194;5.112;2022-12-29T07:50:36;11.90;99.90
49829;DHT22;35723;51.194;5.112;2022-12-29T07:53:02;11.90;99.90
49829;DHT22;35723;51.194;5.112;2022-12-29T07:55:28;11.90;99.90
49829;DHT22;35723;51.194;5.112;2022-12-29T07:57:55;12.00;99.90
49829;DHT22;35723;51.194;5.112;2022-12-29T08:00:21;12.00;99.90
49829;DHT22;35723;51.194;5.112;2022-12-29T08:02:47;11.90;99.90
49829;DHT22;35723;51.194;5.112;2022-12-29T08:05:12;11.90;99.90
49829;DHT22;35723;51.194;5.112;2022-12-29T08:07:38;11.90;99.90
49829;DHT22;35723;51.194;5.112;2022-12-29T08:10:05;12.00;99.90
49829;DHT22;35723;51.194;5.112;2022-12-29T08:12:31;11.90;99.90
49829;DHT22;35723;51.194;5.112;2022-12-29T08:14:56;11.90;99.90
49829;DHT22;35723;51.194;5.112;2022-12-29T08:17:22;12.00;99.90
49829;DHT22;35723;51.194;5.112;2022-12-29T08:19:48;12.10;99.90
49829;DHT22;35723;51.194;5.112;2022-12-29T08:22:14;12.20;99.90
49829;DHT22;35723;51.194;5.112;2022-12-29T08:24:40;12.10;99.90
49829;DHT22;35723;51.194;5.112;2022-12-29T08:27:05;12.00;99.90
49829;DHT22;35723;51.194;5.112;2022-12-29T08:29:31;12.10;99.90
49829;DHT22;35723;51.194;5.112;2022-12-29T08:31:56;12.00;99.90
49829;DHT22;35723;51.194;5.112;2022-12-29T08:34:22;12.00;99.90
49829;DHT22;35723;51.194;5.112;2022-12-29T08:36:48;12.10;99.90
49829;DHT22;35723;51.194;5.112;2022-12-29T08:39:14;12.10;99.90
49829;DHT22;35723;51.194;5.112;2022-12-29T08:41:39;11.90;99.90
49829;DHT22;35723;51.194;5.112;2022-12-29T08:44:05;11.80;99.90
49829;DHT22;35723;51.194;5.112;2022-12-29T08:46:31;11.80;99.90
49829;DHT22;35723;51.194;5.112;2022-12-29T08:48:57;12.00;99.90
49829;DHT22;35723;51.194;5.112;2022-12-29T08:51:22;12.10;99.90
49829;DHT22;35723;51.194;5.112;2022-12-29T08:53:48;12.10;99.90
49829;DHT22;35723;51.194;5.112;2022-12-29T08:56:14;11.90;99.90
49829;DHT22;35723;51.194;5.112;2022-12-29T08:58:40;12.00;99.90
49829;DHT22;35723;51.194;5.112;2022-12-29T09:01:06;12.10;99.90
49829;DHT22;35723;51.194;5.112;2022-12-29T09:03:31;12.10;99.90
49829;DHT22;35723;51.194;5.112;2022-12-29T09:05:57;12.20;99.90
49829;DHT22;35723;51.194;5.112;2022-12-29T09:08:23;12.10;99.90
49829;DHT22;35723;51.194;5.112;2022-12-29T09:10:49;12.10;99.90
49829;DHT22;35723;51.194;5.112;2022-12-29T09:13:17;12.00;99.90
49829;DHT22;35723;51.194;5.112;2022-12-29T09:15:43;12.00;99.90
49829;DHT22;35723;51.194;5.112;2022-12-29T09:18:10;11.90;99.90
49829;DHT22;35723;51.194;5.112;2022-12-29T09:20:36;12.00;99.90
49829;DHT22;35723;51.194;5.112;2022-12-29T09:23:03;12.00;99.90
49829;DHT22;35723;51.194;5.112;2022-12-29T09:25:29;12.10;99.90
49829;DHT22;35723;51.194;5.112;2022-12-29T09:27:55;12.20;99.90
49829;DHT22;35723;51.194;5.112;2022-12-29T09:30:22;12.30;99.90
49829;DHT22;35723;51.194;5.112;2022-12-29T09:32:48;12.20;99.90
49829;DHT22;35723;51.194;5.112;2022-12-29T09:35:15;12.20;99.90
49829;DHT22;35723;51.194;5.112;2022-12-29T09:37:42;12.20;99.90
49829;DHT22;35723;51.194;5.112;2022-12-29T09:40:32;12.00;99.90
49829;DHT22;35723;51.194;5.112;2022-12-29T09:48:44;12.00;99.90
49829;DHT22;35723;51.194;5.112;2022-12-29T09:51:15;11.90;99.90
49829;DHT22;35723;51.194;5.112;2022-12-29T09:53:50;11.90;99.90
49829;DHT22;35723;51.194;5.112;2022-12-29T09:56:21;11.90;99.90
49829;DHT22;35723;51.194;5.112;2022-12-29T09:59:04;11.80;99.90
49829;DHT22;35723;51.194;5.112;2022-12-29T10:04:15;11.90;99.90
49829;DHT22;35723;51.194;5.112;2022-12-29T10:07:02;11.80;99.90
49829;DHT22;35723;51.194;5.112;2022-12-29T10:09:55;11.60;99.90
49829;DHT22;35723;51.194;5.112;2022-12-29T10:12:31;11.70;99.90
49829;DHT22;35723;51.194;5.112;2022-12-29T10:15:32;11.70;99.90
49829;DHT22;35723;51.194;5.112;2022-12-29T10:23:53;11.60;99.90
49829;DHT22;35723;51.194;5.112;2022-12-29T10:26:23;11.50;99.90
49829;DHT22;35723;51.194;5.112;2022-12-29T10:31:25;11.70;99.90
49829;DHT22;35723;51.194;5.112;2022-12-29T10:33:58;11.70;99.90
49829;DHT22;35723;51.194;5.112;2022-12-29T10:36:34;11.70;99.90
49829;DHT22;35723;51.194;5.112;2022-12-29T10:42:08;11.60;99.90
49829;DHT22;35723;51.194;5.112;2022-12-29T10:44:32;11.60;99.90
49829;DHT22;35723;51.194;5.112;2022-12-29T10:47:04;11.70;99.90
49829;DHT22;35723;51.194;5.112;2022-12-29T10:49:32;11.80;99.90
49829;DHT22;35723;51.194;5.112;2022-12-29T10:52:02;11.80;99.90
49829;DHT22;35723;51.194;5.112;2022-12-29T10:54:49;11.70;99.90
49829;DHT22;35723;51.194;5.112;2022-12-29T10:59:42;11.80;99.90
49829;DHT22;35723;51.194;5.112;2022-12-29T11:07:21;11.90;99.90
49829;DHT22;35723;51.194;5.112;2022-12-29T11:09:47;11.80;99.90
49829;DHT22;35723;51.194;5.112;2022-12-29T11:14:44;11.70;99.90
49829;DHT22;35723;51.194;5.112;2022-12-29T11:17:15;11.80;99.90
49829;DHT22;35723;51.194;5.112;2022-12-29T11:19:41;11.90;99.90
49829;DHT22;35723;51.194;5.112;2022-12-29T11:22:28;11.90;99.90
49829;DHT22;35723;51.194;5.112;2022-12-29T11:24:54;11.90;99.90
49829;DHT22;35723;51.194;5.112;2022-12-29T11:27:30;12.10;99.90
49829;DHT22;35723;51.194;5.112;2022-12-29T11:29:56;12.10;99.90
49829;DHT22;35723;51.194;5.112;2022-12-29T11:32:24;12.10;99.90
49829;DHT22;35723;51.194;5.112;2022-12-29T11:34:50;12.00;99.90
49829;DHT22;35723;51.194;5.112;2022-12-29T11:37:29;11.90;99.90
49829;DHT22;35723;51.194;5.112;2022-12-29T11:48:00;12.20;99.90
49829;DHT22;35723;51.194;5.112;2022-12-29T11:50:34;12.20;99.90
49829;DHT22;35723;51.194;5.112;2022-12-29T11:53:03;12.30;99.90
49829;DHT22;35723;51.194;5.112;2022-12-29T11:55:30;12.40;99.90
49829;DHT22;35723;51.194;5.112;2022-12-29T11:57:58;12.30;99.90
49829;DHT22;35723;51.194;5.112;2022-12-29T12:00:28;12.20;99.90
49829;DHT22;35723;51.194;5.112;2022-12-29T12:05:33;12.20;99.90
49829;DHT22;35723;51.194;5.112;2022-12-29T12:08:17;12.10;99.90
49829;DHT22;35723;51.194;5.112;2022-12-29T12:10:57;12.10;99.90
49829;DHT22;35723;51.194;5.112;2022-12-29T12:13:42;12.10;99.90
49829;DHT22;35723;51.194;5.112;2022-12-29T12:16:24;12.20;99.90
49829;DHT22;35723;51.194;5.112;2022-12-29T12:19:13;12.00;99.90
49829;DHT22;35723;51.194;5.112;2022-12-29T12:21:46;12.00;99.90
49829;DHT22;35723;51.194;5.112;2022-12-29T12:30:04;12.00;99.90
49829;DHT22;35723;51.194;5.112;2022-12-29T12:35:57;12.00;99.90
49829;DHT22;35723;51.194;5.112;2022-12-29T12:42:06;11.90;99.90
49829;DHT22;35723;51.194;5.112;2022-12-29T13:00:18;11.80;99.90
49829;DHT22;35723;51.194;5.112;2022-12-29T13:02:55;11.60;99.90
49829;DHT22;35723;51.194;5.112;2022-12-29T13:19:55;11.90;99.90
49829;DHT22;35723;51.194;5.112;2022-12-29T13:28:03;12.40;99.90
49829;DHT22;35723;51.194;5.112;2022-12-29T13:30:36;12.10;99.90
49829;DHT22;35723;51.194;5.112;2022-12-29T13:33:48;11.70;99.90
49829;DHT22;35723;51.194;5.112;2022-12-29T13:36:26;11.40;99.90
49829;DHT22;35723;51.194;5.112;2022-12-29T13:39:09;11.20;99.90
49829;DHT22;35723;51.194;5.112;2022-12-29T13:41:41;11.20;99.90
49829;DHT22;35723;51.194;5.112;2022-12-29T13:44:14;11.20;99.90
49829;DHT22;35723;51.194;5.112;2022-12-29T13:46:44;11.30;99.90
49829;DHT22;35723;51.194;5.112;2022-12-29T13:49:21;11.30;99.90
49829;DHT22;35723;51.194;5.112;2022-12-29T13:51:50;11.30;99.90
49829;DHT22;35723;51.194;5.112;2022-12-29T13:54:55;11.30;99.90
49829;DHT22;35723;51.194;5.112;2022-12-29T14:00:16;11.30;99.90
49829;DHT22;35723;51.194;5.112;2022-12-29T14:07:56;11.10;99.90
49829;DHT22;35723;51.194;5.112;2022-12-29T14:13:19;11.20;99.90
49829;DHT22;35723;51.194;5.112;2022-12-29T14:15:57;11.20;99.90
49829;DHT22;35723;51.194;5.112;2022-12-29T14:18:29;11.30;99.90
49829;DHT22;35723;51.194;5.112;2022-12-29T14:21:19;11.10;99.90
49829;DHT22;35723;51.194;5.112;2022-12-29T14:23:46;11.00;99.90
49829;DHT22;35723;51.194;5.112;2022-12-29T14:26:32;10.90;99.90
49829;DHT22;35723;51.194;5.112;2022-12-29T14:31:48;10.80;99.90
49829;DHT22;35723;51.194;5.112;2022-12-29T14:34:15;11.10;99.90
49829;DHT22;35723;51.194;5.112;2022-12-29T14:36:54;11.20;99.90
49829;DHT22;35723;51.194;5.112;2022-12-29T14:39:40;11.20;99.90
49829;DHT22;35723;51.194;5.112;2022-12-29T14:47:32;11.30;99.90
49829;DHT22;35723;51.194;5.112;2022-12-29T14:52:55;11.00;99.90
49829;DHT22;35723;51.194;5.112;2022-12-29T14:55:38;11.10;99.90
49829;DHT22;35723;51.194;5.112;2022-12-29T14:58:14;11.10;99.90
49829;DHT22;35723;51.194;5.112;2022-12-29T15:00:41;11.00;99.90
49829;DHT22;35723;51.194;5.112;2022-12-29T15:03:20;11.00;99.90
49829;DHT22;35723;51.194;5.112;2022-12-29T15:05:58;11.00;99.90
49829;DHT22;35723;51.194;5.112;2022-12-29T15:14:02;11.10;99.90
49829;DHT22;35723;51.194;5.112;2022-12-29T15:16:31;11.00;99.90
49829;DHT22;35723;51.194;5.112;2022-12-29T15:18:58;11.00;99.90
49829;DHT22;35723;51.194;5.112;2022-12-29T15:21:30;10.90;99.90
49829;DHT22;35723;51.194;5.112;2022-12-29T15:23:56;10.90;99.90
49829;DHT22;35723;51.194;5.112;2022-12-29T15:26:22;10.90;99.90
49829;DHT22;35723;51.194;5.112;2022-12-29T15:28:50;10.80;99.90
49829;DHT22;35723;51.194;5.112;2022-12-29T15:31:23;10.80;99.90
49829;DHT22;35723;51.194;5.112;2022-12-29T15:33:54;10.80;99.90
49829;DHT22;35723;51.194;5.112;2022-12-29T15:36:26;10.80;99.90
49829;DHT22;35723;51.194;5.112;2022-12-29T15:38:52;10.70;99.90
49829;DHT22;35723;51.194;5.112;2022-12-29T15:41:40;10.70;99.90
49829;DHT22;35723;51.194;5.112;2022-12-29T15:47:14;10.60;99.90
49829;DHT22;35723;51.194;5.112;2022-12-29T15:49:43;10.70;99.90
49829;DHT22;35723;51.194;5.112;2022-12-29T15:52:09;10.50;99.90
49829;DHT22;35723;51.194;5.112;2022-12-29T15:54:36;10.50;99.90
49829;DHT22;35723;51.194;5.112;2022-12-29T15:57:03;10.40;99.90
49829;DHT22;35723;51.194;5.112;2022-12-29T15:59:33;10.50;99.90
49829;DHT22;35723;51.194;5.112;2022-12-29T16:02:00;10.50;99.90
49829;DHT22;35723;51.194;5.112;2022-12-29T16:04:31;10.40;99.90
49829;DHT22;35723;51.194;5.112;2022-12-29T16:07:03;10.30;99.90
49829;DHT22;35723;51.194;5.112;2022-12-29T16:09:33;10.30;99.90
49829;DHT22;35723;51.194;5.112;2022-12-29T16:12:03;10.20;99.90
49829;DHT22;35723;51.194;5.112;2022-12-29T16:14:37;10.20;99.90
49829;DHT22;35723;51.194;5.112;2022-12-29T16:17:04;10.30;99.90
49829;DHT22;35723;51.194;5.112;2022-12-29T16:19:38;10.40;99.90
49829;DHT22;35723;51.194;5.112;2022-12-29T16:22:10;10.20;99.90
49829;DHT22;35723;51.194;5.112;2022-12-29T16:24:39;10.20;99.90
49829;DHT22;35723;51.194;5.112;2022-12-29T16:29:31;10.00;99.90
49829;DHT22;35723;51.194;5.112;2022-12-29T16:31:58;10.00;99.90
49829;DHT22;35723;51.194;5.112;2022-12-29T16:34:43;10.10;99.90
49829;DHT22;35723;51.194;5.112;2022-12-29T16:37:33;10.20;99.90
49829;DHT22;35723;51.194;5.112;2022-12-29T16:40:23;10.30;99.90
49829;DHT22;35723;51.194;5.112;2022-12-29T16:42:55;10.30;99.90
49829;DHT22;35723;51.194;5.112;2022-12-29T16:48:11;10.40;99.90
49829;DHT22;35723;51.194;5.112;2022-12-29T16:50:45;10.30;99.90
49829;DHT22;35723;51.194;5.112;2022-12-29T16:53:29;10.40;99.90
49829;DHT22;35723;51.194;5.112;2022-12-29T16:56:02;10.40;99.90
49829;DHT22;35723;51.194;5.112;2022-12-29T16:58:28;10.10;99.90
49829;DHT22;35723;51.194;5.112;2022-12-29T17:00:57;10.00;99.90
49829;DHT22;35723;51.194;5.112;2022-12-29T17:03:38;10.10;99.90
49829;DHT22;35723;51.194;5.112;2022-12-29T17:06:05;10.20;99.90
49829;DHT22;35723;51.194;5.112;2022-12-29T17:08:41;10.10;99.90
49829;DHT22;35723;51.194;5.112;2022-12-29T17:14:20;10.10;99.90
49829;DHT22;35723;51.194;5.112;2022-12-29T17:16:47;10.10;99.90
49829;DHT22;35723;51.194;5.112;2022-12-29T17:19:18;10.10;99.90
49829;DHT22;35723;51.194;5.112;2022-12-29T17:21:44;10.20;99.90
49829;DHT22;35723;51.194;5.112;2022-12-29T17:24:18;10.20;99.90
49829;DHT22;35723;51.194;5.112;2022-12-29T17:26:57;10.00;99.90
49829;DHT22;35723;51.194;5.112;2022-12-29T17:29:37;10.10;99.90
49829;DHT22;35723;51.194;5.112;2022-12-29T17:32:06;10.20;99.90
49829;DHT22;35723;51.194;5.112;2022-12-29T17:34:32;10.20;99.90
49829;DHT22;35723;51.194;5.112;2022-12-29T17:36:58;10.20;99.90
49829;DHT22;35723;51.194;5.112;2022-12-29T17:39:24;10.10;99.90
49829;DHT22;35723;51.194;5.112;2022-12-29T17:41:49;10.10;99.90
49829;DHT22;35723;51.194;5.112;2022-12-29T17:44:17;10.00;99.90
49829;DHT22;35723;51.194;5.112;2022-12-29T17:46:45;9.90;99.90
49829;DHT22;35723;51.194;5.112;2022-12-29T17:49:15;9.90;99.90
49829;DHT22;35723;51.194;5.112;2022-12-29T17:51:43;9.90;99.90
49829;DHT22;35723;51.194;5.112;2022-12-29T17:54:22;9.90;99.90
49829;DHT22;35723;51.194;5.112;2022-12-29T17:56:48;9.90;99.90
49829;DHT22;35723;51.194;5.112;2022-12-29T17:59:13;10.00;99.90
49829;DHT22;35723;51.194;5.112;2022-12-29T18:01:43;10.00;99.90
49829;DHT22;35723;51.194;5.112;2022-12-29T18:04:18;10.00;99.90
49829;DHT22;35723;51.194;5.112;2022-12-29T18:06:44;9.80;99.90
49829;DHT22;35723;51.194;5.112;2022-12-29T18:09:10;9.90;99.90
49829;DHT22;35723;51.194;5.112;2022-12-29T18:11:41;9.90;99.90
49829;DHT22;35723;51.194;5.112;2022-12-29T18:14:15;10.10;99.90
49829;DHT22;35723;51.194;5.112;2022-12-29T18:16:40;10.20;99.90
49829;DHT22;35723;51.194;5.112;2022-12-29T18:19:07;10.20;99.90
49829;DHT22;35723;51.194;5.112;2022-12-29T18:21:33;10.20;99.90